createdAt,value
2023-03-12T00:01:16.360Z,4.33
2023-03-12T00:03:46.551Z,4.27
2023-03-12T00:06:16.774Z,3.70
2023-03-12T00:08:43.555Z,4.37
2023-03-12T00:11:13.099Z,3.90
2023-03-12T00:13:40.603Z,4.03
2023-03-12T00:16:17.476Z,4.00
2023-03-12T00:18:44.722Z,4.20
2023-03-12T00:21:11.581Z,3.90
2023-03-12T00:23:38.460Z,3.80
2023-03-12T00:26:07.976Z,4.23
2023-03-12T00:28:35.364Z,3.80
2023-03-12T00:31:02.927Z,3.83
2023-03-12T00:33:29.668Z,3.80
2023-03-12T00:36:02.212Z,4.00
2023-03-12T00:38:29.004Z,4.17
2023-03-12T00:40:55.799Z,4.20
2023-03-12T00:43:27.444Z,3.70
2023-03-12T00:45:54.069Z,3.87
2023-03-12T00:48:20.647Z,3.40
2023-03-12T00:50:47.432Z,3.87
2023-03-12T00:53:14.054Z,3.57
2023-03-12T00:55:40.620Z,3.60
2023-03-12T00:58:09.674Z,3.97
2023-03-12T01:00:38.784Z,3.57
2023-03-12T01:03:05.698Z,4.20
2023-03-12T01:05:37.729Z,3.60
2023-03-12T01:08:05.178Z,3.77
2023-03-12T01:10:31.870Z,3.50
2023-03-12T01:12:58.960Z,3.57
2023-03-12T01:15:28.487Z,3.40
2023-03-12T01:17:55.113Z,3.97
2023-03-12T01:20:23.196Z,3.53
2023-03-12T01:22:54.711Z,3.60
2023-03-12T01:25:21.487Z,4.53
2023-03-12T01:27:48.078Z,3.40
2023-03-12T01:30:17.427Z,3.67
2023-03-12T01:32:44.030Z,3.97
2023-03-12T01:35:12.939Z,3.50
2023-03-12T01:37:39.590Z,4.00
2023-03-12T01:40:06.610Z,3.77
2023-03-12T01:42:33.237Z,3.73
2023-03-12T01:45:02.088Z,3.70
2023-03-12T01:47:32.442Z,4.03
2023-03-12T01:50:00.861Z,3.53
2023-03-12T01:52:33.628Z,3.63
2023-03-12T01:55:06.548Z,4.07
2023-03-12T01:57:33.065Z,3.97
2023-03-12T02:00:13.888Z,3.50
2023-03-12T02:02:44.212Z,3.87
2023-03-12T02:05:20.084Z,3.83
2023-03-12T02:07:47.093Z,4.10
2023-03-12T02:10:14.302Z,3.87
2023-03-12T02:12:41.138Z,3.43
2023-03-12T02:15:08.432Z,3.60
2023-03-12T02:17:36.863Z,3.53
2023-03-12T02:20:18.705Z,3.70
2023-03-12T02:22:55.717Z,3.60
2023-03-12T02:25:38.586Z,3.97
2023-03-12T02:28:08.849Z,4.00
2023-03-12T02:30:36.715Z,3.50
2023-03-12T02:33:07.508Z,3.90
2023-03-12T02:35:36.867Z,3.33
2023-03-12T02:38:04.268Z,3.57
2023-03-12T02:40:45.930Z,3.83
2023-03-12T02:43:25.257Z,3.43
2023-03-12T02:45:51.995Z,3.67
2023-03-12T02:48:26.400Z,4.23
2023-03-12T02:50:52.934Z,3.53
2023-03-12T02:53:19.699Z,3.27
2023-03-12T02:55:46.333Z,3.77
2023-03-12T02:58:12.874Z,3.33
2023-03-12T03:00:39.454Z,3.40
2023-03-12T03:03:06.034Z,4.10
2023-03-12T03:05:32.802Z,3.73
2023-03-12T03:08:01.608Z,3.80
2023-03-12T03:10:30.853Z,3.90
2023-03-12T03:12:59.709Z,4.30
2023-03-12T03:15:28.656Z,4.20
2023-03-12T03:17:55.361Z,4.07
2023-03-12T03:20:22.731Z,4.17
2023-03-12T03:22:49.357Z,4.03
2023-03-12T03:25:16.166Z,4.40
2023-03-12T03:27:42.809Z,4.40
2023-03-12T03:30:12.989Z,3.97
2023-03-12T03:32:39.812Z,4.70
2023-03-12T03:35:06.741Z,4.40
2023-03-12T03:37:33.315Z,4.10
2023-03-12T03:40:00.157Z,4.20
2023-03-12T03:42:27.104Z,4.63
2023-03-12T03:44:53.742Z,4.17
2023-03-12T03:47:20.339Z,4.77
2023-03-12T03:49:49.175Z,4.80
2023-03-12T03:52:15.764Z,3.90
2023-03-12T03:54:47.617Z,4.57
2023-03-12T03:57:16.569Z,4.20
2023-03-12T03:59:43.151Z,3.83
2023-03-12T04:02:09.717Z,3.87
2023-03-12T04:04:36.338Z,4.10
2023-03-12T04:07:03.007Z,3.37
2023-03-12T04:09:30.601Z,3.57
2023-03-12T04:11:59.272Z,3.77
2023-03-12T04:14:26.027Z,3.50
2023-03-12T04:16:52.584Z,3.50
2023-03-12T04:19:19.218Z,3.50
2023-03-12T04:21:46.004Z,3.10
2023-03-12T04:24:16.943Z,3.17
2023-03-12T04:26:43.565Z,3.20
2023-03-12T04:29:10.202Z,3.17
2023-03-12T04:31:39.051Z,3.30
2023-03-12T04:34:05.729Z,3.60
2023-03-12T04:36:32.550Z,3.30
2023-03-12T04:38:59.147Z,3.30
2023-03-12T04:41:30.483Z,3.60
2023-03-12T04:44:00.088Z,3.53
2023-03-12T04:46:27.010Z,3.73
2023-03-12T04:48:53.661Z,4.13
2023-03-12T04:51:20.234Z,3.70
2023-03-12T04:53:46.941Z,3.53
2023-03-12T04:56:15.873Z,3.87
2023-03-12T04:58:45.054Z,3.80
2023-03-12T05:01:24.578Z,3.70
2023-03-12T05:03:51.647Z,3.57
2023-03-12T05:06:18.379Z,3.97
2023-03-12T05:08:48.383Z,4.10
2023-03-12T05:11:15.599Z,3.87
2023-03-12T05:13:42.678Z,4.00
2023-03-12T05:16:10.359Z,4.10
2023-03-12T05:18:37.340Z,4.00
2023-03-12T05:21:11.951Z,3.73
2023-03-12T05:23:39.296Z,4.10
2023-03-12T05:26:08.911Z,3.87
2023-03-12T05:28:35.541Z,3.70
2023-03-12T05:31:10.636Z,3.87
2023-03-12T05:33:37.695Z,3.97
2023-03-12T05:36:04.827Z,4.10
2023-03-12T05:38:31.473Z,3.50
2023-03-12T05:40:59.403Z,3.97
2023-03-12T05:43:29.469Z,3.60
2023-03-12T05:46:05.788Z,3.87
2023-03-12T05:48:32.504Z,3.90
2023-03-12T05:51:01.610Z,3.67
2023-03-12T05:53:28.198Z,3.60
2023-03-12T05:55:57.166Z,3.87
2023-03-12T05:58:26.039Z,4.10
2023-03-12T06:00:52.852Z,4.40
2023-03-12T06:03:19.471Z,3.87
2023-03-12T06:05:48.566Z,3.53
2023-03-12T06:08:15.203Z,4.03
2023-03-12T06:10:41.765Z,4.00
2023-03-12T06:13:11.708Z,3.57
2023-03-12T06:15:40.821Z,3.60
2023-03-12T06:18:07.674Z,4.37
2023-03-12T06:20:34.253Z,4.40
2023-03-12T06:23:00.902Z,4.10
2023-03-12T06:25:30.004Z,4.30
2023-03-12T06:27:56.623Z,4.47
2023-03-12T06:30:23.354Z,3.43
2023-03-12T06:32:50.185Z,4.57
2023-03-12T06:35:17.149Z,3.63
2023-03-12T06:37:43.855Z,4.17
2023-03-12T06:40:13.335Z,4.37
2023-03-12T06:42:39.978Z,4.17
2023-03-12T06:45:07.240Z,4.13
2023-03-12T06:47:33.791Z,4.00
2023-03-12T06:50:00.565Z,4.30
2023-03-12T06:52:27.749Z,4.20
2023-03-12T06:54:57.067Z,4.50
2023-03-12T06:57:23.706Z,4.40
2023-03-12T06:59:50.765Z,4.33
2023-03-12T07:02:18.425Z,4.50
2023-03-12T07:04:47.104Z,4.17
2023-03-12T07:07:14.794Z,5.17
2023-03-12T07:09:43.476Z,5.20
2023-03-12T07:12:12.665Z,4.43
2023-03-12T07:14:44.697Z,4.70
2023-03-12T07:17:14.731Z,4.93
2023-03-12T07:19:41.582Z,4.33
2023-03-12T07:22:09.096Z,5.10
2023-03-12T07:24:35.802Z,4.87
2023-03-12T07:27:04.624Z,5.10
2023-03-12T07:29:32.411Z,5.10
2023-03-12T07:32:00.830Z,5.50
2023-03-12T07:34:31.878Z,5.30
2023-03-12T07:36:59.052Z,5.10
2023-03-12T07:39:29.375Z,5.97
2023-03-12T07:41:58.220Z,5.23
2023-03-12T07:44:29.423Z,4.90
2023-03-12T07:47:20.551Z,5.03
2023-03-12T07:49:55.647Z,5.27
2023-03-12T07:52:26.709Z,5.57
2023-03-12T07:54:57.213Z,4.90
2023-03-12T07:57:25.386Z,5.40
2023-03-12T07:59:52.867Z,5.80
2023-03-12T08:02:21.253Z,5.37
2023-03-12T08:04:49.216Z,5.50
2023-03-12T08:07:17.582Z,5.63
2023-03-12T08:09:54.551Z,5.17
2023-03-12T08:12:25.998Z,5.83
2023-03-12T08:14:54.865Z,5.17
2023-03-12T08:17:22.138Z,4.87
2023-03-12T08:19:48.989Z,4.97
2023-03-12T08:22:16.945Z,5.47
2023-03-12T08:24:44.168Z,6.23
2023-03-12T08:27:12.428Z,5.23
2023-03-12T08:29:40.116Z,5.40
2023-03-12T08:32:25.610Z,5.53
2023-03-12T08:34:54.782Z,4.93
2023-03-12T08:37:23.859Z,6.23
2023-03-12T08:39:51.786Z,5.80
2023-03-12T08:42:19.598Z,6.07
2023-03-12T08:44:51.011Z,6.15
2023-03-12T08:47:18.933Z,5.73
2023-03-12T08:49:56.492Z,6.43
2023-03-12T08:52:27.841Z,6.65
2023-03-12T08:54:54.382Z,6.53
2023-03-12T08:57:23.934Z,5.90
2023-03-12T08:59:50.497Z,6.83
2023-03-12T09:02:17.066Z,6.65
2023-03-12T09:04:48.751Z,7.30
2023-03-12T09:07:18.434Z,7.68
2023-03-12T09:09:45.246Z,8.43
2023-03-12T09:12:14.345Z,8.38
2023-03-12T09:17:30.405Z,10.45
2023-03-12T09:19:57.046Z,9.77
2023-03-12T09:22:23.596Z,10.75
2023-03-12T09:24:50.236Z,11.48
2023-03-12T09:27:16.874Z,12.25
2023-03-12T09:29:58.733Z,12.75
2023-03-12T09:32:28.384Z,12.25
2023-03-12T09:34:55.088Z,12.80
2023-03-12T09:37:24.646Z,13.23
2023-03-12T09:39:52.001Z,13.77
2023-03-12T09:42:25.812Z,12.73
2023-03-12T09:44:57.180Z,12.15
2023-03-12T09:47:26.624Z,15.25
2023-03-12T09:49:58.639Z,14.50
2023-03-12T09:52:36.359Z,14.63
2023-03-12T09:55:16.655Z,13.98
2023-03-12T09:57:44.902Z,14.07
2023-03-12T10:00:16.996Z,14.73
2023-03-12T10:03:02.706Z,14.13
2023-03-12T10:05:57.923Z,14.85
2023-03-12T10:08:52.359Z,15.77
2023-03-12T10:12:05.808Z,14.27
2023-03-12T10:14:48.913Z,13.00
2023-03-12T10:17:30.883Z,14.45
2023-03-12T10:20:27.040Z,14.75
2023-03-12T10:23:48.040Z,14.55
2023-03-12T10:26:23.611Z,14.32
2023-03-12T10:29:00.733Z,13.88
2023-03-12T10:31:30.174Z,14.73
2023-03-12T10:33:59.633Z,14.25
2023-03-12T10:36:36.343Z,13.75
2023-03-12T10:39:03.556Z,13.80
2023-03-12T10:41:34.983Z,13.30
2023-03-12T10:44:07.816Z,12.43
2023-03-12T10:46:37.124Z,12.27
2023-03-12T10:49:21.729Z,13.02
2023-03-12T10:52:20.175Z,12.55
2023-03-12T10:54:49.213Z,12.23
2023-03-12T10:57:16.723Z,10.55
2023-03-12T10:59:47.485Z,10.73
2023-03-12T11:02:22.924Z,11.32
2023-03-12T11:04:55.101Z,9.98
2023-03-12T11:07:23.596Z,8.93
2023-03-12T11:10:12.621Z,9.00
2023-03-12T11:12:50.838Z,8.60
2023-03-12T11:15:24.432Z,8.57
2023-03-12T11:18:11.278Z,8.25
2023-03-12T11:20:37.871Z,7.72
2023-03-12T11:23:29.594Z,8.13
2023-03-12T11:25:58.397Z,9.55
2023-03-12T11:28:35.976Z,7.63
2023-03-12T11:31:05.281Z,8.38
2023-03-12T11:33:31.955Z,8.93
2023-03-12T11:36:09.862Z,8.07
2023-03-12T11:38:43.628Z,9.02
2023-03-12T11:41:25.118Z,8.07
2023-03-12T11:44:13.554Z,8.43
2023-03-12T11:46:57.894Z,7.40
2023-03-12T11:49:42.821Z,8.00
2023-03-12T11:52:39.876Z,7.90
2023-03-12T11:55:16.606Z,7.85
2023-03-12T11:58:02.048Z,7.50
2023-03-12T12:00:41.993Z,7.28
2023-03-12T12:03:40.406Z,6.65
2023-03-12T12:06:22.524Z,6.50
2023-03-12T12:09:26.562Z,7.35
2023-03-12T12:12:07.542Z,6.32
2023-03-12T12:14:48.664Z,6.35
2023-03-12T12:17:30.538Z,6.32
2023-03-12T12:20:17.291Z,5.13
2023-03-12T12:23:05.376Z,5.18
2023-03-12T12:25:55.072Z,4.82
2023-03-12T12:28:30.325Z,5.78
2023-03-12T12:31:09.350Z,4.90
2023-03-12T12:33:55.732Z,4.70
2023-03-12T12:36:28.172Z,4.55
2023-03-12T12:39:07.050Z,4.07
2023-03-12T12:41:38.484Z,4.63
2023-03-12T12:44:11.509Z,4.82
2023-03-12T12:46:45.221Z,4.82
2023-03-12T12:49:59.732Z,4.88
2023-03-12T12:52:27.300Z,4.00
2023-03-12T12:55:09.832Z,4.15
2023-03-12T12:57:42.561Z,5.95
2023-03-12T13:00:27.308Z,4.75
2023-03-12T13:02:56.468Z,5.18
2023-03-12T13:05:27.723Z,4.50
2023-03-12T13:07:54.635Z,5.38
2023-03-12T13:10:33.475Z,5.30
2023-03-12T13:13:18.117Z,5.38
2023-03-12T13:15:45.129Z,5.65
2023-03-12T13:18:40.522Z,5.18
2023-03-12T13:21:19.171Z,5.32
2023-03-12T13:24:24.134Z,4.88
2023-03-12T13:27:16.377Z,4.50
2023-03-12T13:29:45.734Z,6.15
2023-03-12T13:32:40.659Z,4.00
2023-03-12T13:35:30.119Z,4.20
2023-03-12T13:38:03.012Z,3.95
2023-03-12T13:40:29.751Z,3.42
2023-03-12T13:43:30.932Z,3.60
2023-03-12T13:46:18.261Z,3.65
2023-03-12T13:48:47.915Z,3.65
2023-03-12T13:51:21.574Z,3.50
2023-03-12T13:53:56.024Z,3.38
2023-03-12T13:56:29.089Z,2.67
2023-03-12T13:59:06.241Z,3.85
2023-03-12T14:01:48.325Z,3.35
2023-03-12T14:04:23.208Z,3.33
2023-03-12T14:07:13.153Z,3.28
2023-03-12T14:09:48.419Z,3.30
2023-03-12T14:12:38.841Z,3.47
2023-03-12T14:15:33.523Z,3.15
2023-03-12T14:18:09.248Z,3.30
2023-03-12T14:20:38.922Z,3.30
2023-03-12T14:23:11.780Z,3.38
2023-03-12T14:25:42.984Z,3.03
2023-03-12T14:28:40.731Z,3.92
2023-03-12T14:31:15.521Z,4.30
2023-03-12T14:34:11.615Z,4.55
2023-03-12T14:36:56.437Z,4.47
2023-03-12T14:39:41.638Z,3.63
2023-03-12T14:42:09.521Z,4.90
2023-03-12T14:44:39.506Z,5.85
2023-03-12T14:47:18.325Z,4.97
2023-03-12T14:49:47.025Z,4.50
2023-03-12T14:52:23.198Z,3.85
2023-03-12T14:55:12.228Z,4.03
2023-03-12T14:57:41.037Z,3.53
2023-03-12T15:00:16.380Z,3.60
2023-03-12T15:02:45.828Z,4.53
2023-03-12T15:05:22.140Z,4.18
2023-03-12T15:07:52.033Z,3.97
2023-03-12T15:10:28.072Z,4.00
2023-03-12T15:12:58.094Z,3.88
2023-03-12T15:15:42.782Z,4.25
2023-03-12T15:18:20.277Z,4.18
2023-03-12T15:20:51.016Z,4.15
2023-03-12T15:23:19.523Z,4.18
2023-03-12T15:25:47.386Z,4.07
2023-03-12T15:28:14.130Z,4.22
2023-03-12T15:30:42.633Z,4.57
2023-03-12T15:33:22.667Z,4.00
2023-03-12T15:36:20.844Z,3.90
2023-03-12T15:38:50.633Z,3.92
2023-03-12T15:41:27.088Z,4.15
2023-03-12T15:43:58.368Z,3.42
2023-03-12T15:46:26.537Z,3.65
2023-03-12T15:48:56.473Z,4.13
2023-03-12T15:51:27.394Z,3.97
2023-03-12T15:54:20.386Z,3.67
2023-03-12T15:56:46.989Z,4.43
2023-03-12T15:59:16.325Z,4.07
2023-03-12T16:01:54.533Z,3.78
2023-03-12T16:04:23.103Z,4.47
2023-03-12T16:06:51.840Z,4.22
2023-03-12T16:09:22.611Z,4.25
2023-03-12T16:11:49.501Z,4.47
2023-03-12T16:14:22.980Z,3.83
2023-03-12T16:16:51.238Z,4.47
2023-03-12T16:19:20.954Z,4.93
2023-03-12T16:21:48.496Z,4.13
2023-03-12T16:24:17.317Z,4.68
2023-03-12T16:26:51.032Z,4.63
2023-03-12T16:29:19.435Z,4.63
2023-03-12T16:31:56.001Z,4.80
2023-03-12T16:34:24.417Z,3.90
2023-03-12T16:36:53.576Z,4.28
2023-03-12T16:39:20.661Z,4.00
2023-03-12T16:41:49.625Z,4.35
2023-03-12T16:44:21.418Z,4.53
2023-03-12T16:46:48.150Z,4.63
2023-03-12T16:49:16.758Z,4.63
2023-03-12T16:51:43.473Z,5.50
2023-03-12T16:54:12.662Z,4.00
2023-03-12T16:56:45.001Z,5.18
2023-03-12T16:59:24.532Z,4.05
2023-03-12T17:01:57.660Z,3.53
2023-03-12T17:04:24.339Z,4.50
2023-03-12T17:06:51.053Z,4.40
2023-03-12T17:09:22.330Z,4.03
2023-03-12T17:11:51.784Z,4.30
2023-03-12T17:14:22.345Z,3.80
2023-03-12T17:16:51.568Z,4.10
2023-03-12T17:19:20.433Z,3.67
2023-03-12T17:21:50.985Z,3.90
2023-03-12T17:24:19.834Z,4.00
2023-03-12T17:26:46.541Z,3.80
2023-03-12T17:29:13.123Z,4.05
2023-03-12T17:31:39.693Z,4.15
2023-03-12T17:34:08.904Z,4.22
2023-03-12T17:36:37.674Z,4.32
2023-03-12T17:39:04.796Z,4.25
2023-03-12T17:41:36.184Z,3.67
2023-03-12T17:44:03.852Z,4.85
2023-03-12T17:46:31.233Z,4.28
2023-03-12T17:48:58.099Z,4.53
2023-03-12T17:51:25.137Z,4.80
2023-03-12T17:53:53.921Z,4.82
2023-03-12T17:56:20.855Z,5.22
2023-03-12T17:58:47.659Z,4.88
2023-03-12T18:01:15.691Z,5.45
2023-03-12T18:03:43.943Z,4.05
2023-03-12T18:06:13.677Z,4.45
2023-03-12T18:08:40.309Z,5.13
2023-03-12T18:11:07.028Z,3.70
2023-03-12T18:13:33.645Z,4.50
2023-03-12T18:16:00.476Z,4.50
2023-03-12T18:18:27.955Z,3.95
2023-03-12T18:20:54.795Z,3.65
2023-03-12T18:23:25.264Z,4.13
2023-03-12T18:25:52.270Z,4.50
2023-03-12T18:28:22.429Z,4.75
2023-03-12T18:30:49.090Z,4.22
2023-03-12T18:33:16.382Z,4.70
2023-03-12T18:35:44.174Z,4.32
2023-03-12T18:38:10.761Z,4.72
2023-03-12T18:40:39.881Z,5.07
2023-03-12T18:43:09.030Z,5.05
2023-03-12T18:45:35.682Z,4.38
2023-03-12T18:48:02.283Z,4.15
2023-03-12T18:50:31.043Z,5.57
2023-03-12T18:52:57.704Z,4.90
2023-03-12T18:55:24.335Z,4.45
2023-03-12T18:57:53.177Z,4.45
2023-03-12T19:00:20.074Z,4.45
2023-03-12T19:02:48.168Z,4.90
2023-03-12T19:05:16.064Z,4.70
2023-03-12T19:07:42.882Z,5.05
2023-03-12T19:10:12.717Z,4.28
2023-03-12T19:12:51.520Z,4.22
2023-03-12T19:15:20.098Z,4.30
2023-03-12T19:17:46.715Z,4.05
2023-03-12T19:20:14.224Z,3.72
2023-03-12T19:22:40.878Z,5.18
2023-03-12T19:25:07.898Z,4.05
2023-03-12T19:27:36.830Z,4.05
2023-03-12T19:30:04.146Z,4.20
2023-03-12T19:32:42.349Z,4.47
2023-03-12T19:35:11.895Z,3.83
2023-03-12T19:37:41.456Z,4.38
2023-03-12T19:40:11.614Z,4.50
2023-03-12T19:42:38.250Z,4.07
2023-03-12T19:45:05.233Z,4.20
2023-03-12T19:47:34.341Z,3.97
2023-03-12T19:50:01.257Z,4.25
2023-03-12T19:52:28.059Z,4.45
2023-03-12T19:55:04.400Z,4.28
2023-03-12T19:57:32.621Z,5.32
2023-03-12T19:59:59.322Z,3.72
2023-03-12T20:02:26.550Z,4.35
2023-03-12T20:04:55.589Z,4.65
2023-03-12T20:07:22.317Z,3.90
2023-03-12T20:09:49.065Z,4.53
2023-03-12T20:12:15.733Z,4.22
2023-03-12T20:14:43.004Z,4.82
2023-03-12T20:17:09.995Z,4.30
2023-03-12T20:19:39.065Z,4.53
2023-03-12T20:22:06.797Z,4.97
2023-03-12T20:24:38.147Z,3.90
2023-03-12T20:27:07.439Z,4.75
2023-03-12T20:29:34.007Z,3.90
2023-03-12T20:32:00.720Z,4.35
2023-03-12T20:34:27.373Z,4.25
2023-03-12T20:36:53.959Z,4.70
2023-03-12T20:39:20.798Z,4.05
2023-03-12T20:41:51.359Z,5.18
2023-03-12T20:44:18.475Z,3.97
2023-03-12T20:46:46.185Z,4.18
2023-03-12T20:49:13.007Z,4.18
2023-03-12T20:51:40.709Z,5.10
2023-03-12T20:54:09.608Z,5.13
2023-03-12T20:56:36.240Z,5.00
2023-03-12T20:59:05.226Z,5.10
2023-03-12T21:01:32.155Z,5.30
2023-03-12T21:04:01.011Z,4.97
2023-03-12T21:06:30.081Z,4.57
2023-03-12T21:08:57.289Z,4.15
2023-03-12T21:11:26.729Z,4.45
2023-03-12T21:13:54.193Z,4.57
2023-03-12T21:16:20.976Z,4.93
2023-03-12T21:18:47.687Z,4.30
2023-03-12T21:21:15.059Z,5.68
2023-03-12T21:23:41.744Z,5.18
2023-03-12T21:26:09.554Z,4.63
2023-03-12T21:28:36.883Z,4.70
2023-03-12T21:31:08.772Z,3.80
2023-03-12T21:33:37.919Z,4.55
2023-03-12T21:36:09.762Z,4.78
2023-03-12T21:38:37.559Z,4.45
2023-03-12T21:41:09.675Z,4.82
2023-03-12T21:43:39.227Z,4.30
2023-03-12T21:46:14.859Z,4.82
2023-03-12T21:48:44.967Z,5.18
2023-03-12T21:51:14.613Z,4.32
2023-03-12T21:53:42.050Z,4.63
2023-03-12T21:56:09.689Z,4.65
2023-03-12T21:58:36.940Z,4.28
2023-03-12T22:01:03.624Z,4.32
2023-03-12T22:03:30.489Z,4.70
2023-03-12T22:05:57.132Z,3.83
2023-03-12T22:08:23.738Z,4.43
2023-03-12T22:10:50.442Z,4.25
2023-03-12T22:13:17.304Z,4.00
2023-03-12T22:15:59.642Z,4.68
2023-03-12T22:18:27.864Z,4.93
2023-03-12T22:20:56.926Z,4.10
2023-03-12T22:23:24.728Z,3.95
2023-03-12T22:25:52.040Z,3.97
2023-03-12T22:28:19.580Z,3.83
2023-03-12T22:30:46.633Z,3.85
2023-03-12T22:33:13.935Z,3.72
2023-03-12T22:35:47.441Z,3.65
2023-03-12T22:38:14.518Z,4.60
2023-03-12T22:40:41.700Z,4.45
2023-03-12T22:43:10.524Z,4.10
2023-03-12T22:45:39.660Z,4.43
2023-03-12T22:48:09.019Z,3.63
2023-03-12T22:50:35.665Z,4.22
2023-03-12T22:53:02.219Z,3.13
2023-03-12T22:55:28.787Z,3.40
2023-03-12T22:57:55.330Z,3.55
2023-03-12T23:00:23.150Z,3.17
2023-03-12T23:02:52.724Z,4.13
2023-03-12T23:05:19.404Z,3.33
2023-03-12T23:07:46.178Z,3.55
2023-03-12T23:10:12.863Z,3.65
2023-03-12T23:12:41.684Z,3.90
2023-03-12T23:15:08.917Z,3.25
2023-03-12T23:17:35.772Z,3.53
2023-03-12T23:20:05.564Z,3.55
2023-03-12T23:22:33.507Z,3.83
2023-03-12T23:25:02.682Z,4.07
2023-03-12T23:27:29.323Z,3.00
2023-03-12T23:29:55.922Z,4.63
2023-03-12T23:32:25.000Z,4.05
2023-03-12T23:34:52.001Z,3.97
2023-03-12T23:37:20.932Z,4.07
2023-03-12T23:39:54.544Z,4.03
2023-03-12T23:42:21.903Z,3.00
2023-03-12T23:44:50.792Z,3.78
2023-03-12T23:47:17.386Z,4.03
2023-03-12T23:49:44.119Z,3.47
2023-03-12T23:52:10.782Z,3.10
2023-03-12T23:54:39.977Z,3.00
2023-03-12T23:57:06.596Z,3.50
2023-03-12T23:59:33.198Z,3.92
